Terminal Aerodrome Forecast
Issued by NWS

Home | Current Version | Previous Version | Text Only | Print | Product List | Glossary On
Versions: 1 2 3 4 5 6 7 8 9 10 11 12 13 14 15 16 17 18 19 20 21 22 23 24
000
FTUS41 KPHI 021005 AAC
TAFMIV
TAF AMD
KMIV 021005Z 0210/0306 26003KT 4SM BR OVC003
      TEMPO 0210/0214 2SM -FZRADZ
     FM021400 29008G18KT 5SM BR OVC012
     FM021500 30014G24KT P6SM SCT040 BKN200
     FM022300 31008KT P6SM SCT250=

USA.gov is the U.S. government's official web portal to all federal, state and local government web resources and services.